Time;durP1;ratioP1;P1;durP2;ratioP2;P2;SDS_P1;SDS_P2;PMS_P1;PMS_P2;Temp;Humidity;BMP_temperature;BMP_pressure;BME280_temperature;BME280_humidity;BME280_pressure;Samples;Min_cycle;Max_cycle;Signal;HPM_P1;HPM_P2
2022/05/17 00:01:06;;;;;;;3.95;2.10;;;;;;;14.00;nan;101856.19;5105808;27;20028;-47
2022/05/17 00:03:32;;;;;;;5.88;2.83;;;;;;;13.90;nan;101856.03;5103165;27;20078;-47
2022/05/17 00:05:57;;;;;;;3.33;1.98;;;;;;;13.87;nan;101854.63;5107510;27;20065;-47
2022/05/17 00:08:23;;;;;;;4.25;2.20;;;;;;;13.90;nan;101862.22;5103582;27;20080;-48
2022/05/17 00:10:48;;;;;;;3.38;2.05;;;;;;;13.98;nan;101865.56;5101096;27;20299;-47
2022/05/17 00:13:14;;;;;;;4.22;2.13;;;;;;;13.97;nan;101872.84;5105937;27;20364;-46
2022/05/17 00:15:43;;;;;;;5.50;2.30;;;;;;;13.93;nan;101866.31;5105801;27;20472;-46
2022/05/17 00:18:11;;;;;;;6.68;2.58;;;;;;;13.86;nan;101860.25;5105701;27;20035;-47
2022/05/17 00:20:37;;;;;;;7.07;3.17;;;;;;;13.77;nan;101859.00;5102931;27;20247;-49
2022/05/17 00:23:03;;;;;;;3.72;2.50;;;;;;;13.74;nan;101859.50;5103989;27;20028;-47
2022/05/17 00:25:29;;;;;;;4.07;2.00;;;;;;;13.70;nan;101861.03;5099732;27;20081;-47
2022/05/17 00:27:55;;;;;;;4.82;2.25;;;;;;;13.69;nan;101856.72;5106977;27;20027;-46
2022/05/17 00:30:20;;;;;;;4.80;2.13;;;;;;;13.64;nan;101862.00;5103385;27;20031;-46
2022/05/17 00:32:46;;;;;;;5.22;2.38;;;;;;;13.58;nan;101856.53;5105605;27;20077;-46
2022/05/17 00:35:11;;;;;;;5.45;2.10;;;;;;;13.57;nan;101860.28;5105327;27;20500;-46
2022/05/17 00:37:37;;;;;;;5.05;2.50;;;;;;;13.52;nan;101849.41;5105492;27;20118;-49
2022/05/17 00:40:06;;;;;;;9.18;2.53;;;;;;;13.46;nan;101841.47;5106081;27;20019;-45
2022/05/17 00:42:31;;;;;;;8.35;2.22;;;;;;;13.34;nan;101841.53;5107776;27;20384;-47
2022/05/17 00:44:57;;;;;;;6.68;2.53;;;;;;;13.26;nan;101836.50;5104727;27;20042;-46
2022/05/17 00:47:25;;;;;;;4.15;2.15;;;;;;;13.29;nan;101834.19;5104377;27;20028;-45
2022/05/17 00:50:02;;;;;;;7.47;2.40;;;;;;;13.40;nan;101832.47;5105612;27;20155;-46
2022/05/17 00:52:36;;;;;;;3.47;2.30;;;;;;;13.40;nan;101837.88;5097645;27;20154;-47
2022/05/17 00:55:09;;;;;;;4.45;2.20;;;;;;;13.39;nan;101838.13;5108444;27;20214;-46
2022/05/17 00:57:56;;;;;;;5.60;2.67;;;;;;;13.34;nan;101838.84;5108684;27;20032;-45
2022/05/17 01:00:23;;;;;;;5.30;2.47;;;;;;;13.33;nan;101847.16;5103402;27;20090;-47
2022/05/17 01:02:53;;;;;;;6.22;2.28;;;;;;;13.34;nan;101854.16;5102644;27;20022;-46
2022/05/17 01:05:23;;;;;;;4.53;2.50;;;;;;;13.32;nan;101846.34;5101626;27;20027;-45
2022/05/17 01:07:52;;;;;;;8.13;2.40;;;;;;;13.32;nan;101843.66;5104012;27;20048;-45
2022/05/17 01:10:18;;;;;;;5.55;2.70;;;;;;;13.32;nan;101850.91;5100971;27;20496;-46
2022/05/17 01:14:57;;;;;;;3.38;2.25;;;;;;;13.33;nan;101842.59;5101285;27;20015;-46
2022/05/17 01:15:30;;;;;;;4.80;2.28;;;;;;;13.29;nan;101849.50;5098818;27;20035;-46
2022/05/17 01:17:55;;;;;;;6.00;2.55;;;;;;;13.31;nan;101850.09;5100808;27;20023;-48
2022/05/17 01:20:21;;;;;;;3.88;2.40;;;;;;;13.34;nan;101836.16;5105944;27;20387;-46
2022/05/17 01:22:46;;;;;;;6.68;2.65;;;;;;;13.29;nan;101841.44;5104332;27;20126;-46
2022/05/17 01:25:12;;;;;;;5.18;2.38;;;;;;;13.34;nan;101843.41;5100625;27;20036;-46
2022/05/17 01:27:46;;;;;;;5.32;2.33;;;;;;;13.32;nan;101842.84;5104385;27;20028;-46
2022/05/17 01:30:18;;;;;;;3.23;2.10;;;;;;;13.27;nan;101843.53;5106583;27;20035;-46
2022/05/17 01:32:43;;;;;;;6.20;2.75;;;;;;;13.29;nan;101846.81;5102995;27;20017;-46
2022/05/17 01:35:09;;;;;;;5.68;2.75;;;;;;;13.29;nan;101841.44;5103806;27;20487;-46
2022/05/17 01:37:34;;;;;;;5.93;2.90;;;;;;;13.29;nan;101841.44;5100575;27;20039;-46
2022/05/17 01:40:00;;;;;;;4.80;3.13;;;;;;;13.29;nan;101833.38;5103335;27;20032;-47
2022/05/17 01:42:25;;;;;;;5.40;2.40;;;;;;;13.31;nan;101833.94;5100715;27;20400;-47
2022/05/17 01:44:51;;;;;;;5.90;2.40;;;;;;;13.36;nan;101831.34;5103313;27;20375;-46
2022/05/17 01:47:17;;;;;;;5.13;2.50;;;;;;;13.33;nan;101831.81;5101947;27;20028;-46
2022/05/17 01:49:42;;;;;;;6.57;2.92;;;;;;;13.32;nan;101834.75;5107161;27;20019;-45
2022/05/17 01:52:09;;;;;;;5.50;2.40;;;;;;;13.24;nan;101838.63;5102786;27;20491;-46
2022/05/17 01:54:34;;;;;;;5.15;2.45;;;;;;;13.25;nan;101842.94;5102701;27;20498;-46
2022/05/17 01:57:00;;;;;;;6.35;2.63;;;;;;;13.24;nan;101844.81;5099756;27;20057;-46
2022/05/17 01:59:26;;;;;;;4.80;2.72;;;;;;;13.20;nan;101845.56;5104336;27;20396;-46
2022/05/17 02:01:51;;;;;;;5.35;2.70;;;;;;;13.19;nan;101857.38;5103829;27;20064;-46
2022/05/17 02:04:17;;;;;;;4.90;2.40;;;;;;;13.19;nan;101857.38;5101767;27;21332;-45
2022/05/17 02:06:42;;;;;;;5.40;2.75;;;;;;;13.16;nan;101857.81;5100961;27;20052;-46
2022/05/17 02:09:08;;;;;;;4.25;3.08;;;;;;;13.13;nan;101858.31;5100164;27;20548;-46
2022/05/17 02:11:34;;;;;;;6.10;2.63;;;;;;;13.12;nan;101859.34;5102775;28;20880;-46
2022/05/17 02:14:00;;;;;;;7.10;2.53;;;;;;;13.14;nan;101862.63;5097944;27;20727;-45
2022/05/17 02:16:25;;;;;;;7.40;2.80;;;;;;;13.15;nan;101862.38;5101288;27;20020;-45
2022/05/17 02:18:51;;;;;;;6.78;2.60;;;;;;;13.14;nan;101854.56;5099503;27;20540;-47
2022/05/17 02:21:17;;;;;;;5.38;2.53;;;;;;;13.13;nan;101855.59;5100980;27;20019;-46
2022/05/17 02:23:42;;;;;;;6.72;2.58;;;;;;;13.15;nan;101857.00;5099316;27;20541;-47
2022/05/17 02:26:08;;;;;;;5.63;2.40;;;;;;;13.15;nan;101859.69;5102915;27;20123;-46
2022/05/17 02:28:35;;;;;;;4.93;2.85;;;;;;;13.18;nan;101859.25;5095100;27;20631;-47
2022/05/17 02:31:01;;;;;;;4.75;2.53;;;;;;;13.16;nan;101861.31;5101391;28;20023;-46
2022/05/17 02:33:26;;;;;;;5.30;2.80;;;;;;;13.15;nan;101864.25;5105989;27;20483;-47
2022/05/17 02:35:52;;;;;;;10.63;2.83;;;;;;;13.14;nan;101865.31;5102319;27;20030;-46
2022/05/17 02:38:18;;;;;;;6.40;2.55;;;;;;;13.17;nan;101870.22;5094655;28;20020;-46
2022/05/17 02:40:44;;;;;;;5.72;2.67;;;;;;;13.16;nan;101871.28;5097317;28;20034;-47
2022/05/17 02:43:13;;;;;;;6.22;2.58;;;;;;;13.14;nan;101871.50;5099419;28;20016;-47
2022/05/17 02:45:40;;;;;;;4.75;2.50;;;;;;;13.10;nan;101872.19;5101953;28;20479;-47
2022/05/17 02:48:06;;;;;;;6.20;2.67;;;;;;;13.10;nan;101864.94;5105258;27;20480;-47
2022/05/17 02:50:32;;;;;;;4.57;2.70;;;;;;;13.08;nan;101868.94;5106762;27;20027;-47
2022/05/17 02:52:58;;;;;;;8.35;2.90;;;;;;;13.05;nan;101872.09;5111086;27;20016;-46
2022/05/17 02:55:24;;;;;;;9.10;3.25;;;;;;;12.99;nan;101880.06;5110747;27;20099;-47
2022/05/17 02:57:49;;;;;;;6.88;2.80;;;;;;;13.02;nan;101876.91;5100645;27;20252;-47
2022/05/17 03:00:16;;;;;;;6.18;2.55;;;;;;;13.07;nan;101880.75;5104490;27;20024;-48
2022/05/17 03:02:42;;;;;;;5.97;2.50;;;;;;;13.06;nan;101882.63;5102278;27;20024;-47
2022/05/17 03:05:09;;;;;;;7.13;2.72;;;;;;;13.04;nan;101882.06;5105178;27;20493;-46
2022/05/17 03:07:35;;;;;;;5.32;2.70;;;;;;;13.02;nan;101884.97;5105848;27;20065;-47
2022/05/17 03:10:01;;;;;;;7.85;2.85;;;;;;;12.98;nan;101885.69;5107471;27;20102;-47
2022/05/17 03:12:26;;;;;;;5.05;2.67;;;;;;;12.98;nan;101885.69;5102782;27;20552;-46
2022/05/17 03:14:52;;;;;;;5.78;2.88;;;;;;;12.95;nan;101884.31;5108692;27;20027;-46
2022/05/17 03:17:18;;;;;;;6.30;2.88;;;;;;;12.93;nan;101888.28;5107304;27;20087;-47
2022/05/17 03:19:44;;;;;;;4.93;2.67;;;;;;;12.94;nan;101898.81;5101163;27;20369;-48
2022/05/17 03:22:10;;;;;;;5.93;2.95;;;;;;;12.92;nan;101892.81;5103092;27;20027;-47
2022/05/17 03:24:36;;;;;;;7.60;2.80;;;;;;;12.94;nan;101901.50;5106543;27;20020;-46
2022/05/17 03:27:02;;;;;;;3.95;2.42;;;;;;;12.94;nan;101906.06;5103726;27;20138;-47
2022/05/17 03:29:28;;;;;;;3.08;2.47;;;;;;;12.91;nan;101901.94;5106756;27;20050;-47
2022/05/17 03:31:54;;;;;;;5.88;2.80;;;;;;;12.93;nan;101899.88;5105903;27;20030;-47
2022/05/17 03:34:20;;;;;;;4.70;3.10;;;;;;;12.93;nan;101891.78;5106503;27;20020;-46
2022/05/17 03:36:45;;;;;;;7.07;2.90;;;;;;;12.94;nan;101898.00;5104876;27;20053;-46
2022/05/17 03:39:11;;;;;;;7.75;3.17;;;;;;;12.98;nan;101899.97;5100530;27;20031;-47
2022/05/17 03:41:37;;;;;;;4.88;2.40;;;;;;;13.05;nan;101904.38;5102350;27;20024;-47
2022/05/17 03:44:03;;;;;;;7.15;2.72;;;;;;;13.07;nan;101902.28;5099952;27;20019;-48
2022/05/17 03:46:28;;;;;;;4.43;2.35;;;;;;;13.09;nan;101916.31;5107194;27;20035;-47
2022/05/17 03:48:54;;;;;;;6.22;2.50;;;;;;;13.08;nan;101904.72;5101804;27;20483;-47
2022/05/17 03:51:20;;;;;;;4.25;2.55;;;;;;;13.13;nan;101906.72;5103973;27;20022;-47
2022/05/17 03:53:47;;;;;;;6.10;2.53;;;;;;;13.13;nan;101914.81;5106534;27;20038;-47
2022/05/17 03:56:13;;;;;;;4.20;2.28;;;;;;;13.14;nan;101917.25;5106816;27;20111;-47
2022/05/17 03:58:39;;;;;;;5.65;2.63;;;;;;;13.15;nan;101915.38;5104683;28;20060;-48
2022/05/17 04:01:06;;;;;;;7.10;3.00;;;;;;;13.14;nan;101916.44;5103332;27;20465;-47
2022/05/17 04:03:32;;;;;;;9.32;2.42;;;;;;;13.14;nan;101916.44;5107441;27;20044;-47
2022/05/17 04:05:58;;;;;;;9.23;2.78;;;;;;;13.17;nan;101911.41;5105918;27;20193;-47
2022/05/17 04:08:24;;;;;;;5.75;2.60;;;;;;;13.18;nan;101914.94;5105041;28;20076;-47
2022/05/17 04:10:49;;;;;;;9.32;3.15;;;;;;;13.19;nan;101921.97;5104426;27;20386;-47
2022/05/17 04:13:15;;;;;;;10.45;2.47;;;;;;;13.22;nan;101916.09;5103904;27;20015;-47
2022/05/17 04:15:41;;;;;;;7.40;2.58;;;;;;;13.25;nan;101927.19;5105521;27;20030;-47
2022/05/17 04:18:07;;;;;;;5.18;3.03;;;;;;;13.29;nan;101924.88;5104849;27;20027;-46
2022/05/17 04:20:33;;;;;;;6.53;2.83;;;;;;;13.28;nan;101928.59;5103126;27;20067;-47
2022/05/17 04:22:59;;;;;;;2.72;2.53;;;;;;;13.32;nan;101932.47;5100598;27;20094;-47
2022/05/17 04:25:26;;;;;;;6.70;2.72;;;;;;;13.30;nan;101939.97;5106105;27;20368;-47
2022/05/17 04:27:52;;;;;;;5.78;2.80;;;;;;;13.31;nan;101936.22;5104873;27;20042;-47
2022/05/17 04:30:18;;;;;;;9.95;2.67;;;;;;;13.33;nan;101939.50;5103650;27;20027;-47
2022/05/17 04:32:44;;;;;;;6.68;2.97;;;;;;;13.34;nan;101941.13;5103783;27;20024;-48
2022/05/17 04:35:11;;;;;;;8.25;2.50;;;;;;;13.36;nan;101941.69;5098693;27;20020;-47
2022/05/17 04:37:36;;;;;;;4.93;2.50;;;;;;;13.40;nan;101940.16;5103297;27;20106;-47
2022/05/17 04:40:08;;;;;;;5.57;2.30;;;;;;;13.42;nan;101938.06;5104739;27;20122;-47
2022/05/17 04:42:35;;;;;;;9.48;2.97;;;;;;;13.39;nan;101932.31;5101823;27;20031;-47
2022/05/17 04:45:02;;;;;;;4.68;2.50;;;;;;;13.41;nan;101941.78;5104534;27;20027;-47
2022/05/17 04:47:29;;;;;;;7.78;2.65;;;;;;;13.42;nan;101940.75;5102552;27;20058;-47
2022/05/17 04:49:55;;;;;;;16.50;3.30;;;;;;;13.48;nan;101941.69;5100831;27;20035;-47
2022/05/17 04:52:23;;;;;;;14.02;3.00;;;;;;;13.50;nan;101939.56;5096534;28;20058;-48
2022/05/17 04:54:49;;;;;;;10.85;2.53;;;;;;;13.52;nan;101938.28;5101117;27;20065;-44
2022/05/17 04:57:15;;;;;;;16.08;2.47;;;;;;;13.57;nan;101943.75;5102034;27;20035;-46
2022/05/17 04:59:41;;;;;;;10.90;2.70;;;;;;;13.55;nan;101939.66;5107699;27;20393;-46
2022/05/17 05:02:06;;;;;;;4.57;2.63;;;;;;;13.56;nan;101944.81;5100504;27;20412;-46
2022/05/17 05:04:32;;;;;;;9.82;2.83;;;;;;;13.59;nan;101938.94;5106443;27;20117;-46
2022/05/17 05:06:57;;;;;;;4.85;2.92;;;;;;;13.59;nan;101938.94;5102377;27;20444;-46
2022/05/17 05:09:23;;;;;;;4.78;2.20;;;;;;;13.56;nan;101942.13;5104682;27;20026;-45
2022/05/17 05:11:49;;;;;;;9.98;2.70;;;;;;;13.55;nan;101947.75;5103419;28;20496;-46
2022/05/17 05:14:14;;;;;;;3.72;1.92;;;;;;;13.47;nan;101953.50;5098074;27;20462;-46
2022/05/17 05:16:40;;;;;;;5.60;2.50;;;;;;;13.49;nan;101949.53;5097748;27;20080;-46
2022/05/17 05:19:05;;;;;;;7.50;2.50;;;;;;;13.51;nan;101952.78;5103900;27;20024;-48
2022/05/17 05:21:30;;;;;;;6.90;2.65;;;;;;;13.53;nan;101953.38;5102565;27;20665;-47
2022/05/17 05:23:56;;;;;;;5.13;2.20;;;;;;;13.51;nan;101960.88;5101714;27;20024;-46
2022/05/17 05:26:22;;;;;;;5.50;2.00;;;;;;;13.53;nan;101963.31;5102140;27;20035;-48
2022/05/17 05:28:47;;;;;;;4.60;2.50;;;;;;;13.50;nan;101967.31;5095610;22;20040;-41
2022/05/17 05:31:15;;;;;;;5.10;1.92;;;;;;;13.50;nan;101972.69;5066682;28;20030;-40
2022/05/17 05:33:41;;;;;;;8.95;2.30;;;;;;;13.42;nan;101975.75;5061438;28;20078;-41
2022/05/17 05:36:08;;;;;;;8.15;2.20;;;;;;;13.43;nan;101982.75;5065408;28;20055;-40
2022/05/17 05:38:34;;;;;;;20.33;4.22;;;;;;;13.41;nan;101981.38;5066313;28;20094;-40
2022/05/17 05:41:00;;;;;;;7.40;2.22;;;;;;;13.43;nan;101981.94;5071132;28;20012;-40
2022/05/17 05:43:25;;;;;;;7.30;2.47;;;;;;;13.44;nan;101987.09;5063472;28;20016;-41
2022/05/17 05:45:52;;;;;;;9.02;2.97;;;;;;;13.49;nan;101981.00;5060384;28;20017;-39
2022/05/17 05:48:17;;;;;;;18.25;3.63;;;;;;;13.50;nan;101979.97;5064989;28;20020;-40
2022/05/17 05:50:43;;;;;;;9.85;2.38;;;;;;;13.50;nan;101971.88;5062469;28;20386;-40
2022/05/17 05:53:11;;;;;;;16.42;2.78;;;;;;;13.53;nan;101966.00;5058040;28;20369;-40
2022/05/17 05:55:38;;;;;;;4.28;2.33;;;;;;;13.59;nan;101967.75;5057162;28;20410;-40
2022/05/17 05:58:04;;;;;;;10.52;3.13;;;;;;;13.66;nan;101965.75;5060627;28;20228;-40
2022/05/17 06:00:29;;;;;;;12.38;2.70;;;;;;;13.65;nan;101960.59;5066320;28;20039;-40
2022/05/17 06:02:56;;;;;;;6.57;2.10;;;;;;;13.73;nan;101960.22;5064734;28;20032;-40
2022/05/17 06:05:22;;;;;;;8.70;2.22;;;;;;;13.78;nan;101957.63;5065517;28;20049;-40
2022/05/17 06:07:49;;;;;;;8.73;2.25;;;;;;;13.85;nan;101971.78;5055177;28;20464;-41
2022/05/17 06:10:16;;;;;;;7.53;2.30;;;;;;;13.93;nan;101970.56;5063100;28;20017;-41
2022/05/17 06:12:42;;;;;;;3.60;2.42;;;;;;;13.97;nan;101969.84;5063342;28;20032;-40
2022/05/17 06:15:08;;;;;;;7.05;2.50;;;;;;;14.04;nan;101981.31;5063387;28;20107;-40
2022/05/17 06:17:35;;;;;;;6.03;2.28;;;;;;;14.05;nan;101974.84;5073114;28;20051;-42
2022/05/17 06:20:01;;;;;;;5.07;2.13;;;;;;;14.07;nan;101975.44;5074082;28;20098;-40
2022/05/17 06:22:27;;;;;;;5.15;2.10;;;;;;;14.07;nan;101977.31;5071610;28;20098;-41
2022/05/17 06:24:53;;;;;;;8.02;2.78;;;;;;;14.14;nan;101986.88;5064409;28;20028;-40
2022/05/17 06:27:19;;;;;;;7.15;1.90;;;;;;;14.23;nan;101987.31;5065997;28;20043;-40
2022/05/17 06:29:44;;;;;;;7.80;2.28;;;;;;;14.29;nan;101985.50;5062105;28;20017;-41
2022/05/17 06:32:17;;;;;;;4.55;2.35;;;;;;;14.33;nan;101989.34;5070073;28;20051;-40
2022/05/17 06:34:45;;;;;;;4.07;2.05;;;;;;;14.32;nan;101988.53;5062558;28;20035;-40
2022/05/17 06:37:11;;;;;;;4.95;2.50;;;;;;;14.19;nan;101995.06;5061573;28;20633;-40
2022/05/17 06:39:38;;;;;;;12.07;2.65;;;;;;;14.20;nan;102003.97;5063684;28;20024;-40
2022/05/17 06:42:04;;;;;;;5.18;2.00;;;;;;;14.14;nan;102003.03;5063129;28;20029;-40
2022/05/17 06:44:30;;;;;;;5.35;2.00;;;;;;;14.14;nan;102005.72;5062112;28;20028;-40
2022/05/17 06:46:59;;;;;;;4.55;2.22;;;;;;;14.23;nan;102014.25;5065913;28;20035;-40
2022/05/17 06:49:26;;;;;;;4.65;2.30;;;;;;;14.35;nan;102008.78;5067463;28;20363;-41
2022/05/17 06:51:52;;;;;;;10.98;2.60;;;;;;;14.44;nan;102015.47;5062175;28;20045;-42
2022/05/17 06:54:18;;;;;;;7.32;2.55;;;;;;;14.51;nan;102006.16;5063679;28;20100;-41
2022/05/17 06:56:43;;;;;;;7.80;2.75;;;;;;;14.54;nan;102020.22;5063142;28;20090;-40
2022/05/17 06:59:09;;;;;;;6.78;2.40;;;;;;;14.57;nan;102017.06;5073402;28;20044;-41
2022/05/17 07:01:35;;;;;;;6.18;2.15;;;;;;;14.61;nan;102027.09;5071177;28;20110;-40
2022/05/17 07:04:01;;;;;;;3.42;2.10;;;;;;;14.56;nan;102027.03;5076183;28;20028;-40
2022/05/17 07:06:27;;;;;;;5.10;2.70;;;;;;;14.53;nan;102024.78;5069011;28;20028;-40
2022/05/17 07:08:53;;;;;;;11.82;2.45;;;;;;;14.45;nan;102027.91;5063033;28;20027;-41
2022/05/17 07:14:03;;;;;;;5.80;2.42;;;;;;;14.64;nan;102034.72;5064651;28;20035;-40
2022/05/17 07:16:28;;;;;;;4.93;2.38;;;;;;;14.78;nan;102037.91;5055438;28;20398;-40
2022/05/17 07:18:54;;;;;;;5.60;2.17;;;;;;;14.88;nan;102031.84;5063673;28;20028;-41
2022/05/17 07:21:20;;;;;;;9.60;2.15;;;;;;;14.92;nan;102035.72;5063224;28;20033;-40
2022/05/17 07:23:45;;;;;;;7.55;2.35;;;;;;;14.99;nan;102042.56;5057539;28;20028;-40
2022/05/17 07:26:13;;;;;;;4.95;2.05;;;;;;;15.10;nan;102052.47;5062803;28;20084;-41
2022/05/17 07:28:47;;;;;;;5.07;2.40;;;;;;;15.20;nan;102054.50;5059992;28;20397;-40
2022/05/17 07:31:14;;;;;;;7.68;2.30;;;;;;;15.31;nan;102058.19;5063668;28;20543;-40
2022/05/17 07:33:40;;;;;;;7.28;2.88;;;;;;;15.33;nan;102056.84;5064833;28;20411;-40
2022/05/17 07:36:07;;;;;;;6.03;2.00;;;;;;;15.34;nan;102052.28;5071987;28;20077;-40
2022/05/17 07:38:33;;;;;;;4.03;2.30;;;;;;;15.37;nan;102047.19;5063537;28;20083;-40
2022/05/17 07:40:59;;;;;;;6.15;2.20;;;;;;;15.42;nan;102058.06;5064250;28;20029;-40
2022/05/17 07:43:25;;;;;;;4.00;2.05;;;;;;;15.51;nan;102057.66;5070333;28;20023;-41
2022/05/17 07:45:51;;;;;;;3.17;2.10;;;;;;;15.56;nan;102063.13;5073684;28;20125;-40
2022/05/17 07:48:21;;;;;;;6.90;2.03;;;;;;;15.60;nan;102072.38;5068786;28;20035;-40
2022/05/17 07:50:48;;;;;;;7.65;2.53;;;;;;;15.67;nan;102078.44;5065978;28;20021;-40
2022/05/17 07:53:16;;;;;;;4.45;2.15;;;;;;;15.72;nan;102078.50;5066553;28;20159;-40
2022/05/17 07:55:43;;;;;;;5.20;2.35;;;;;;;15.81;nan;102089.72;5065939;28;20390;-40
2022/05/17 07:58:09;;;;;;;7.55;2.30;;;;;;;15.83;nan;102093.78;5071898;28;20055;-40
2022/05/17 08:00:36;;;;;;;10.77;2.20;;;;;;;15.89;nan;102091.97;5065450;28;20476;-40
2022/05/17 08:03:04;;;;;;;4.13;2.10;;;;;;;15.98;nan;102096.69;5067290;28;20032;-40
2022/05/17 08:05:30;;;;;;;5.35;2.50;;;;;;;16.08;nan;102095.16;5064045;28;20024;-41
2022/05/17 08:07:56;;;;;;;3.92;2.25;;;;;;;16.08;nan;102096.00;5069153;28;20389;-40
2022/05/17 08:10:22;;;;;;;5.72;2.25;;;;;;;16.14;nan;102094.97;5067914;28;20058;-40
2022/05/17 08:12:48;;;;;;;8.02;2.40;;;;;;;16.21;nan;102097.50;5062289;28;20027;-40
2022/05/17 08:15:14;;;;;;;5.15;2.55;;;;;;;16.21;nan;102100.19;5063908;28;20032;-40
2022/05/17 08:17:40;;;;;;;4.78;2.13;;;;;;;16.34;nan;102099.81;5068151;28;20517;-40
2022/05/17 08:20:09;;;;;;;4.80;2.28;;;;;;;16.49;nan;102102.66;5069013;28;20059;-40
2022/05/17 08:22:45;;;;;;;3.38;1.73;;;;;;;16.66;nan;102107.16;5067472;28;20032;-40
2022/05/17 08:28:01;;;;;;;5.97;2.17;;;;;;;16.83;nan;102107.91;5063218;28;20140;-40
2022/05/17 08:30:28;;;;;;;4.20;2.50;;;;;;;16.84;nan;102112.25;5073080;28;20303;-41
2022/05/17 08:33:19;;;;;;;4.25;2.10;;;;;;;16.86;nan;102102.78;5066465;28;20036;-40
2022/05/17 08:35:46;;;;;;;19.88;2.45;;;;;;;16.73;nan;102108.63;5071230;28;20048;-41
2022/05/17 08:38:15;;;;;;;8.48;2.47;;;;;;;16.71;nan;102105.38;5064487;28;20016;-40
2022/05/17 08:41:12;;;;;;;9.43;2.25;;;;;;;16.80;nan;102095.69;5066390;28;20442;-41
2022/05/17 08:44:00;;;;;;;6.18;2.30;;;;;;;16.89;nan;102096.88;5060241;28;20048;-42
2022/05/17 08:46:47;;;;;;;5.97;2.33;;;;;;;17.14;nan;102103.56;5063773;28;20096;-40
2022/05/17 08:49:28;;;;;;;9.13;2.50;;;;;;;17.39;nan;102102.94;5071867;28;20156;-40
2022/05/17 08:52:07;;;;;;;15.18;2.70;;;;;;;17.61;nan;102109.06;5064346;28;20021;-41
2022/05/17 08:54:47;;;;;;;5.07;2.03;;;;;;;17.77;nan;102091.00;5071135;28;20512;-40
2022/05/17 08:57:39;;;;;;;5.70;2.28;;;;;;;17.77;nan;102099.13;5065573;28;20055;-40
2022/05/17 09:00:23;;;;;;;4.40;2.53;;;;;;;17.72;nan;102099.09;5070506;28;20743;-41
2022/05/17 09:03:04;;;;;;;4.17;2.30;;;;;;;17.75;nan;102099.38;5063406;28;20037;-40
2022/05/17 09:05:33;;;;;;;7.00;2.38;;;;;;;17.89;nan;102102.44;5063403;28;20254;-40
2022/05/17 09:08:11;;;;;;;6.00;2.30;;;;;;;18.12;nan;102103.88;5064147;28;20028;-42
2022/05/17 09:10:42;;;;;;;3.70;2.20;;;;;;;18.45;nan;102093.69;5065027;28;20025;-40
2022/05/17 09:13:25;;;;;;;6.80;2.08;;;;;;;18.47;nan;102095.03;5064670;28;20048;-40
2022/05/17 09:15:55;;;;;;;7.25;2.45;;;;;;;18.35;nan;102097.19;5061788;28;20431;-41
2022/05/17 09:18:22;;;;;;;4.35;2.22;;;;;;;18.29;nan;102098.25;5062338;28;20384;-40
2022/05/17 09:20:48;;;;;;;5.93;2.10;;;;;;;17.98;nan;102103.59;5063549;28;20056;-41
2022/05/17 09:23:14;;;;;;;9.13;2.40;;;;;;;17.99;nan;102098.97;5068004;28;20052;-41
2022/05/17 09:25:58;;;;;;;9.07;2.80;;;;;;;18.06;nan;102110.38;5064575;28;20190;-40
2022/05/17 09:28:27;;;;;;;3.40;1.98;;;;;;;18.12;nan;102103.88;5063674;28;20072;-40
2022/05/17 09:31:32;;;;;;;6.30;2.72;;;;;;;18.18;nan;102102.84;5065052;28;20035;-40
2022/05/17 09:34:01;;;;;;;6.50;2.03;;;;;;;18.26;nan;102105.03;5066983;28;20718;-40
2022/05/17 09:36:43;;;;;;;2.50;1.98;;;;;;;18.35;nan;102102.63;5061565;28;20560;-40
2022/05/17 09:39:11;;;;;;;10.80;2.70;;;;;;;18.41;nan;102105.09;5060555;28;20032;-40
2022/05/17 09:41:40;;;;;;;5.03;2.53;;;;;;;18.57;nan;102105.94;5063131;28;20028;-41
2022/05/17 09:44:12;;;;;;;5.43;2.17;;;;;;;18.87;nan;102105.19;5066347;28;20727;-40
2022/05/17 09:46:45;;;;;;;4.75;2.20;;;;;;;19.15;nan;102111.16;5061773;28;20033;-40
2022/05/17 09:52:34;;;;;;;4.85;2.53;;;;;;;19.70;nan;102113.00;5064969;28;20028;-41
2022/05/17 09:55:09;;;;;;;6.57;2.50;;;;;;;19.74;nan;102114.06;5061858;28;20017;-40
2022/05/17 09:57:35;;;;;;;;;;;;;;;19.90;nan;102118.38;5063268;28;20124;-41
2022/05/17 10:00:12;;;;;;;3.40;1.92;;;;;;;20.12;nan;102115.31;5060058;28;20453;-40
2022/05/17 10:03:16;;;;;;;13.52;3.60;;;;;;;20.15;nan;102109.31;5066071;28;20073;-41
2022/05/17 10:05:55;;;;;;;4.05;2.30;;;;;;;20.07;nan;102112.59;5060174;28;20049;-40
2022/05/17 10:08:21;;;;;;;4.05;2.70;;;;;;;20.01;nan;102113.72;5061282;28;20119;-41
2022/05/17 10:11:00;;;;;;;9.82;2.45;;;;;;;20.06;nan;102112.88;5064290;28;20459;-40
2022/05/17 10:13:32;;;;;;;7.07;2.50;;;;;;;20.27;nan;102113.59;5065610;28;20587;-41
2022/05/17 10:16:06;;;;;;;3.40;2.20;;;;;;;20.51;nan;102122.78;5063183;28;20035;-41
2022/05/17 10:18:54;;;;;;;6.90;2.73;;;;;;;20.69;nan;102124.03;5063794;28;20440;-40
2022/05/17 10:21:29;;;;;;;5.00;2.05;;;;;;;20.70;nan;102125.66;5064794;28;20275;-43
2022/05/17 10:24:04;;;;;;;3.67;1.98;;;;;;;20.78;nan;102125.84;5055248;28;20064;-41
2022/05/17 10:26:34;;;;;;;4.07;2.13;;;;;;;20.96;nan;102131.72;5056839;28;20036;-41
2022/05/17 10:29:15;;;;;;;7.05;2.55;;;;;;;21.06;nan;102120.75;5059160;28;20375;-40
2022/05/17 10:31:53;;;;;;;5.40;2.05;;;;;;;21.07;nan;102125.09;5061057;28;20046;-42
2022/05/17 10:34:25;;;;;;;3.92;1.92;;;;;;;21.27;nan;102124.94;5052004;28;20024;-41
2022/05/17 10:36:58;;;;;;;3.72;2.17;;;;;;;21.35;nan;102120.78;5058474;28;20036;-42
2022/05/17 10:39:34;;;;;;;4.95;2.20;;;;;;;21.47;nan;102125.84;5061558;28;20086;-41
2022/05/17 10:42:00;;;;;;;5.45;2.40;;;;;;;21.68;nan;102124.53;5058964;28;20141;-41
2022/05/17 10:44:56;;;;;;;7.45;2.30;;;;;;;21.57;nan;102112.13;5057957;28;20031;-41
2022/05/17 10:47:48;;;;;;;5.75;2.28;;;;;;;21.69;nan;102116.06;5054458;28;20490;-41
2022/05/17 10:50:19;;;;;;;5.78;2.30;;;;;;;21.75;nan;102116.84;5049316;28;20051;-40
2022/05/17 10:53:22;;;;;;;4.68;2.00;;;;;;;21.75;nan;102111.38;5057118;28;20082;-40
2022/05/17 10:55:47;;;;;;;3.92;1.80;;;;;;;21.81;nan;102112.13;5056828;28;20040;-40
2022/05/17 10:58:49;;;;;;;3.33;1.90;;;;;;;21.84;nan;102117.81;5059642;28;20020;-41
2022/05/17 11:01:38;;;;;;;6.82;1.92;;;;;;;22.06;nan;102116.47;5045081;28;20071;-41
2022/05/17 11:04:57;;;;;;;6.75;2.42;;;;;;;21.89;nan;102115.00;5056284;28;20115;-40
2022/05/17 11:07:36;;;;;;;5.50;2.38;;;;;;;21.64;nan;102112.59;5059558;28;20043;-42
2022/05/17 11:10:08;;;;;;;2.38;1.70;;;;;;;21.56;nan;102115.94;5065817;28;20486;-44
2022/05/17 11:12:43;;;;;;;2.85;1.92;;;;;;;21.69;nan;102113.31;5065511;28;20029;-40
2022/05/17 11:15:23;;;;;;;4.50;2.40;;;;;;;21.93;nan;102121.53;5062479;28;20029;-41
2022/05/17 11:17:56;;;;;;;4.35;2.22;;;;;;;22.29;nan;102113.72;5062922;28;20055;-40
2022/05/17 11:20:36;;;;;;;7.75;2.35;;;;;;;22.60;nan;102118.72;5061799;28;20021;-40
2022/05/17 11:23:30;;;;;;;4.90;2.10;;;;;;;22.79;nan;102124.19;5066018;28;20036;-41
2022/05/17 11:26:24;;;;;;;3.40;1.60;;;;;;;22.91;nan;102109.00;5063005;28;20024;-42
2022/05/17 11:29:08;;;;;;;4.38;1.98;;;;;;;23.01;nan;102116.22;5066135;28;20036;-42
2022/05/17 11:31:55;;;;;;;5.53;1.63;;;;;;;22.55;nan;102118.81;5059606;28;20072;-41
2022/05/17 11:34:31;;;;;;;3.30;1.95;;;;;;;22.50;nan;102118.91;5061378;28;20484;-40
2022/05/17 11:37:00;;;;;;;8.93;2.53;;;;;;;22.59;nan;102115.19;5061471;28;20056;-41
2022/05/17 11:39:32;;;;;;;6.75;2.60;;;;;;;22.77;nan;102129.94;5063496;28;20035;-42
2022/05/17 11:42:31;;;;;;;9.48;2.30;;;;;;;22.79;nan;102126.91;5064757;28;20033;-41
2022/05/17 11:45:18;;;;;;;6.07;1.92;;;;;;;23.00;nan;102117.34;5063525;28;20521;-41
2022/05/17 11:47:44;;;;;;;7.20;1.70;;;;;;;23.09;nan;102117.44;5061916;28;20035;-42
2022/05/17 11:50:15;;;;;;;33.83;5.10;;;;;;;23.12;nan;102127.78;5059839;28;20024;-41
2022/05/17 11:52:45;;;;;;;9.35;2.20;;;;;;;23.23;nan;102120.22;5060860;28;20078;-41
2022/05/17 11:55:15;;;;;;;7.43;1.63;;;;;;;23.24;nan;102121.84;5062224;28;20123;-41
2022/05/17 11:57:42;;;;;;;5.65;1.90;;;;;;;23.40;nan;102124.00;5059780;28;20465;-42
2022/05/17 12:00:29;;;;;;;8.50;2.17;;;;;;;23.40;nan;102125.94;5060105;28;20039;-41
2022/05/17 12:02:58;;;;;;;4.90;2.28;;;;;;;23.17;nan;102116.78;5066656;28;20139;-40